Hlavní strana
METAR-TAF:

METAR-TAF

Letiště :

Letiště Vitebsk

Vitebsk, Bělorusko

zeměpisná šířka: 55-10N, zeměpisná délka: 030-13E, výška: 176 m

Aktuální stav počasí

Zpráva byla vytvořena před 7 hodinami a 57 minutami, v 16:00 UTC
Východoseverovýchodní vítr 4 kt
Teplota -1°C
Vlhkost vzduchu 100%
Tlak 1035 hPa
Viditelnost: 3100 m
Zataženo ve výšce 300 ft
kouřmo

METAR: UMII 151600Z 06002MPS 3100 BR OVC003 M01/M01 Q1035 R05/920330 TEMPO 2000 BKN002 RMK QBB090

Čas: 02:57 (23:57 UTC)

Předpověď počasí

Zpráva byla vytvořena před 9 hodinami a 52 minutami, v 14:05 UTC
Předpověď platná od 15 v 15 UTC do 15 v 24 UTC
Severovýchodní vítr 6 kt
Viditelnost: 2000 m
Oblačno až skoro zataženo ve výšce 400 ft
kouřmo
Dočasný
od 15 v 15 UTC do 15 v 24 UTC
Viditelnost: 0500 m
ve výšce 200 ft
sníh, mrznoucí mrholení, mrznoucí mlha

TAF: UMII 151405Z 1515/1524 05003MPS 2000 BR BKN004 TEMPO 1515/1524 0500 SN FZDZ FZFG VV002

Stav a předpovědi počasí z více než 4 000 letišť (zprávy METAR a TAF).

Červené a žluté tečky na mapě představují dostupné meteorologické stanice.

Když kurzor umístíte na tečku, zobrazí se název stanice.

Pak kliknutím zobrazíte stav a předpověď počasí.

Chcete-li změnit mapu, kliknutím na zelené tlačítko se znaménkem +mapu přiblížíte, kliknutím na zelené tlačítko se znaménkem – mapu oddálíte a kliknutím na zelené šipky přejdete na sousední mapy.


METAR-TAF: